Aransas Pass, TX

6:37 PM CDT on August 26, 2016 (GMT -0500)
Gas Lite Village | | Change Station

Elev 18 ft 27.92 °N, 97.16 °W | Updated 12 seconds ago

Scattered Clouds
Scattered Clouds
86.3 °F
Feels Like 99 °F
N
3.9
Wind Variable Wind from ESE
Gusts 6.9 mph

Today
High -- | Low -- °F
--% Chance of Precip.
Yesterday
High -- | Low -- °F
Precip. -- in
Pressure 29.93 in
Visibility 10.0 miles
Clouds Scattered Clouds 2600 ft
Scattered Clouds 3200 ft
Heat Index 99 °F
Dew Point 78 °F
Humidity 77%
Rainfall 0.01 in
Snow Depth Not available.
7:04 AM 7:55 PM
Waning Crescent, 30% visible
METAR KTFP 262315Z AUTO 10011KT 10SM SCT026 SCT032 32/25 A2993 RMK AO2 T03170247
Pressure 29.93 in
Visibility 10.0 miles
Clouds Scattered Clouds 2600 ft
Scattered Clouds 3200 ft
Heat Index 99 °F
Dew Point 78 °F
Humidity 77%
Rainfall 0.01 in
Snow Depth Not available.
7:04 AM 7:55 PM
Waning Crescent, 30% visible
METAR KTFP 262315Z AUTO 10011KT 10SM SCT026 SCT032 32/25 A2993 RMK AO2 T03170247

10-Day Weather Forecast

Almanac

Astronomy

Aug. 26, 2016 Rise Set
Actual Time
Civil Twilight
Nautical Twilight
Astronomical Twilight
Moon
Length of Visible Light
Length of Day
Tomorrow will be .
, % of the Moon is Illuminated

Today's Extremes

State Highs State Lows

Community

WunderPhotos

Upload Photos

1,935,255 photos uploaded!

WunderBlog® & News

Nearby

Air Quality

  Air Quality AQ Index Pollutant
Not available.

Snow Depth

Station Depth Elevation

Earthquake Activity

City Distance Mag. Time & Date
Minimum magnitude displayed is 2.5.

Coastal Water Temperatures

Place Temperature

Stations

Nearby Weather Stations

Station Location Temp. Windchill Dew Point Humidity Wind Precip. Elev Updated Type
                   

Watches & Warnings

There are currently no watches in effect.